Terminal Aerodrome Forecast
Issued by NWS Portland, OR

Home | Current Version | Previous Version | Text Only | Print | Product List | Glossary On
Versions: 1 2 3 4 5 6 7 8 9 10 11 12 13 14 15 16 17
000
FTUS46 KPQR 250533
TAFEUG
TAF
KEUG 250533Z 2506/2606 19007KT P6SM SCT025 BKN045 BKN060
     FM251900 19008KT P6SM VCSH SCT025 BKN045 BKN070
     FM260100 21005KT P6SM SCT060 BKN120=

USA.gov is the U.S. government's official web portal to all federal, state and local government web resources and services.